Time;durP1;ratioP1;P1;durP2;ratioP2;P2;SDS_P1;SDS_P2;PMS_P1;PMS_P2;Temp;Humidity;BMP_temperature;BMP_pressure;BME280_temperature;BME280_humidity;BME280_pressure;Samples;Min_cycle;Max_cycle;Signal;HPM_P1;HPM_P2
2022/04/09 00:01:31;;;;;;;5.30;4.03;;;5.90;1.00;;;;;;4910332;29;20238;-77
2022/04/09 00:04:05;;;;;;;4.70;3.50;;;6.00;1.00;;;;;;4911580;29;20983;-78
2022/04/09 00:06:44;;;;;;;6.00;3.90;;;5.90;1.00;;;;;;4917500;29;20243;-79
2022/04/09 00:09:13;;;;;;;6.80;3.65;;;5.90;1.00;;;;;;4915503;29;20299;-77
2022/04/09 00:11:45;;;;;;;5.28;4.22;;;5.90;1.00;;;;;;4927839;23;20312;-77
2022/04/09 00:14:24;;;;;;;6.18;4.10;;;5.90;1.00;;;;;;4977183;23;20276;-79
2022/04/09 00:17:08;;;;;;;3.92;3.30;;;5.90;1.00;;;;;;4935988;28;20896;-79
2022/04/09 00:19:36;;;;;;;5.47;4.07;;;5.90;1.00;;;;;;4933051;28;20252;-79
2022/04/09 00:22:04;;;;;;;5.00;3.70;;;5.90;1.00;;;;;;4929977;28;20233;-80
2022/04/09 00:24:31;;;;;;;5.75;4.32;;;5.90;1.00;;;;;;4922579;28;20253;-81
2022/04/09 00:27:04;;;;;;;5.80;4.10;;;5.90;1.00;;;;;;4925353;28;20264;-79
2022/04/09 00:29:32;;;;;;;5.28;4.68;;;5.90;1.00;;;;;;4921482;28;20670;-80
2022/04/09 00:32:04;;;;;;;7.47;3.88;;;5.80;1.00;;;;;;4921817;28;20252;-80
2022/04/09 00:34:33;;;;;;;5.60;3.83;;;5.80;1.00;;;;;;4925319;28;20241;-79
2022/04/09 00:37:05;;;;;;;6.78;4.00;;;5.80;1.00;;;;;;4920883;28;20241;-80
2022/04/09 00:39:33;;;;;;;5.22;3.85;;;5.80;1.00;;;;;;4930296;28;20230;-79
2022/04/09 00:42:06;;;;;;;4.80;3.97;;;5.70;1.00;;;;;;4923486;28;20246;-80
2022/04/09 00:44:46;;;;;;;5.50;4.43;;;5.70;1.00;;;;;;4931479;28;20242;-81
2022/04/09 00:47:13;;;;;;;6.07;4.35;;;5.70;1.00;;;;;;4921163;28;20277;-80
2022/04/09 00:49:42;;;;;;;4.93;3.83;;;5.60;1.00;;;;;;4920572;28;20242;-80
2022/04/09 00:52:14;;;;;;;7.22;4.28;;;5.60;1.00;;;;;;4925597;28;20339;-80
2022/04/09 00:54:45;;;;;;;8.05;4.38;;;5.60;1.00;;;;;;4933160;28;20519;-80
2022/04/09 00:57:16;;;;;;;8.35;4.30;;;5.60;1.00;;;;;;4946063;28;20301;-79
2022/04/09 00:59:47;;;;;;;6.78;4.05;;;5.60;1.00;;;;;;4930965;28;20230;-80
2022/04/09 01:02:14;;;;;;;4.55;4.03;;;5.60;1.00;;;;;;4922506;28;20338;-81
2022/04/09 01:04:44;;;;;;;10.50;7.10;;;5.60;1.00;;;;;;4926798;28;20234;-79
2022/04/09 01:07:15;;;;;;;6.95;3.95;;;5.60;1.00;;;;;;4922595;28;20241;-81
2022/04/09 01:09:50;;;;;;;4.75;3.30;;;5.50;1.00;;;;;;4924691;28;20239;-79
2022/04/09 01:12:36;;;;;;;7.50;4.32;;;5.60;1.00;;;;;;4932336;28;20271;-80
2022/04/09 01:15:04;;;;;;;8.55;3.95;;;5.60;1.00;;;;;;4928588;28;20246;-80
2022/04/09 01:17:34;;;;;;;4.32;3.90;;;5.50;1.00;;;;;;4931277;28;20250;-81
2022/04/09 01:20:15;;;;;;;5.40;3.65;;;5.50;1.00;;;;;;4934353;28;20243;-80
2022/04/09 01:22:45;;;;;;;6.20;3.33;;;5.50;1.00;;;;;;4947885;28;20314;-79
2022/04/09 01:25:11;;;;;;;8.25;3.45;;;5.50;1.00;;;;;;4948322;28;20246;-80
2022/04/09 01:27:46;;;;;;;4.53;3.28;;;5.40;1.00;;;;;;4945311;28;20245;-80
2022/04/09 01:30:14;;;;;;;7.85;4.13;;;5.40;1.00;;;;;;4944657;28;20263;-80
2022/04/09 01:32:44;;;;;;;6.90;3.30;;;5.40;1.00;;;;;;4944182;28;20214;-79
2022/04/09 01:35:13;;;;;;;4.35;3.25;;;5.40;1.00;;;;;;4938961;28;20731;-79
2022/04/09 01:37:44;;;;;;;7.38;3.08;;;5.40;1.00;;;;;;4936023;28;20222;-80
2022/04/09 01:40:15;;;;;;;8.98;3.20;;;5.40;1.00;;;;;;4931631;28;20241;-80
2022/04/09 01:42:43;;;;;;;4.25;2.97;;;5.30;1.00;;;;;;4930453;28;20245;-78
2022/04/09 01:45:14;;;;;;;6.60;3.60;;;5.30;1.00;;;;;;4924063;28;20242;-80
2022/04/09 01:47:43;;;;;;;6.20;2.58;;;5.30;1.00;;;;;;4928492;28;20310;-79
2022/04/09 01:50:13;;;;;;;6.57;3.10;;;5.30;1.00;;;;;;4924962;28;20245;-80
2022/04/09 01:52:44;;;;;;;5.85;3.00;;;5.30;1.00;;;;;;4927910;28;20230;-81
2022/04/09 01:55:14;;;;;;;5.63;2.90;;;5.20;1.00;;;;;;4929025;28;20467;-80
2022/04/09 01:57:43;;;;;;;3.97;2.58;;;5.20;1.00;;;;;;4928866;28;20245;-80
2022/04/09 02:00:13;;;;;;;4.22;2.80;;;5.20;1.00;;;;;;4929130;28;20253;-80
2022/04/09 02:02:47;;;;;;;4.18;2.70;;;5.20;1.00;;;;;;4926131;28;20258;-80
2022/04/09 02:05:16;;;;;;;7.30;2.70;;;5.20;1.00;;;;;;4925326;28;20289;-79
2022/04/09 02:07:45;;;;;;;7.65;3.65;;;5.20;1.00;;;;;;4925611;28;20730;-78
2022/04/09 02:10:20;;;;;;;4.85;2.53;;;5.20;1.00;;;;;;4921884;28;20225;-79
2022/04/09 02:12:52;;;;;;;9.02;3.53;;;5.10;1.00;;;;;;4926199;28;20986;-79
2022/04/09 02:15:19;;;;;;;5.30;2.72;;;5.20;1.00;;;;;;4923686;28;20294;-78
2022/04/09 02:17:46;;;;;;;5.93;3.28;;;5.20;1.00;;;;;;4923358;28;20246;-81
2022/04/09 02:20:15;;;;;;;7.50;3.10;;;5.20;1.00;;;;;;4931458;28;20278;-78
2022/04/09 02:22:45;;;;;;;8.80;3.15;;;5.10;1.00;;;;;;4924197;28;20245;-80
2022/04/09 02:25:16;;;;;;;9.13;3.58;;;5.10;1.00;;;;;;4930225;28;20249;-81
2022/04/09 02:27:44;;;;;;;5.97;3.15;;;5.10;1.00;;;;;;4942690;28;20248;-80
2022/04/09 02:30:12;;;;;;;4.90;3.15;;;5.00;1.00;;;;;;4943231;28;20233;-78
2022/04/09 02:32:45;;;;;;;6.82;3.38;;;5.00;1.00;;;;;;4930421;28;20481;-82
2022/04/09 02:35:12;;;;;;;6.53;2.80;;;5.00;1.00;;;;;;4932230;28;20262;-80
2022/04/09 02:37:46;;;;;;;7.07;3.10;;;5.00;1.00;;;;;;4928834;28;20237;-81
2022/04/09 02:40:15;;;;;;;6.45;3.08;;;4.90;1.00;;;;;;4928186;28;20256;-81
2022/04/09 02:42:43;;;;;;;6.57;3.10;;;4.90;1.00;;;;;;4927725;28;20448;-80
2022/04/09 02:45:14;;;;;;;9.00;3.00;;;4.90;1.00;;;;;;4924064;28;24581;-79
2022/04/09 02:47:44;;;;;;;5.15;3.30;;;4.80;1.00;;;;;;4927885;28;20241;-79
2022/04/09 02:50:12;;;;;;;8.57;3.33;;;4.80;1.00;;;;;;4927586;28;20241;-81
2022/04/09 02:52:43;;;;;;;14.90;3.70;;;4.80;1.00;;;;;;4926731;28;20282;-81
2022/04/09 02:55:11;;;;;;;7.15;3.50;;;4.80;1.00;;;;;;4926625;28;20921;-80
2022/04/09 02:57:42;;;;;;;7.28;3.45;;;4.70;1.00;;;;;;4928059;28;20580;-80
2022/04/09 03:00:13;;;;;;;4.70;3.28;;;4.70;1.00;;;;;;4924184;28;20242;-80
2022/04/09 03:02:49;;;;;;;4.32;3.28;;;4.60;1.00;;;;;;4926945;28;20380;-80
2022/04/09 03:05:16;;;;;;;7.60;3.40;;;4.60;1.00;;;;;;4924738;28;20332;-80
2022/04/09 03:07:44;;;;;;;5.50;3.28;;;4.50;1.00;;;;;;4927208;28;20788;-80
2022/04/09 03:10:15;;;;;;;4.93;3.20;;;4.50;1.00;;;;;;4927050;28;20250;-82
2022/04/09 03:12:52;;;;;;;4.47;2.80;;;4.50;1.00;;;;;;4916582;28;20242;-80
2022/04/09 03:15:19;;;;;;;11.23;6.57;;;4.50;1.00;;;;;;4929248;28;21005;-80
2022/04/09 03:17:46;;;;;;;4.45;3.33;;;4.50;1.00;;;;;;4949930;28;20241;-79
2022/04/09 03:20:13;;;;;;;5.72;3.30;;;4.40;1.00;;;;;;4949496;28;20242;-79
2022/04/09 03:22:45;;;;;;;6.95;3.42;;;4.40;1.00;;;;;;4939136;28;20250;-80
2022/04/09 03:25:23;;;;;;;4.35;3.05;;;4.30;1.00;;;;;;5110482;23;20291;-79
2022/04/09 03:27:55;;;;;;;5.30;3.75;;;4.30;1.00;;;;;;4927408;28;20245;-81
2022/04/09 03:30:25;;;;;;;5.65;2.90;;;4.30;1.00;;;;;;4927158;28;20234;-79
2022/04/09 03:32:55;;;;;;;11.93;4.28;;;4.30;1.00;;;;;;4925605;28;20241;-80
2022/04/09 03:38:25;;;;;;;9.07;3.50;;;4.30;1.00;;;;;;4924622;28;20249;-80
2022/04/09 03:40:55;;;;;;;5.50;3.30;;;4.20;1.00;;;;;;4923180;28;20734;-79
2022/04/09 03:44:07;;;;;;;4.35;3.42;;;4.20;1.00;;;;;;4938999;28;20312;-80
2022/04/09 03:46:46;;;;;;;5.03;3.03;;;4.10;1.00;;;;;;4918560;28;20288;-79
2022/04/09 03:52:38;;;;;;;5.80;3.65;;;4.00;1.00;;;;;;4878015;28;20241;-80
2022/04/09 03:55:35;;;;;;;8.27;3.60;;;4.00;1.00;;;;;;4926795;28;20245;-80
2022/04/09 03:58:45;;;;;;;8.35;3.03;;;4.00;1.00;;;;;;4847979;29;20292;-80
2022/04/09 04:25:26;;;;;;;8.98;4.53;;;4.00;1.00;;;;;;6309644;22;20429;-78
2022/04/09 04:28:06;;;;;;;9.40;4.07;;;4.20;1.00;;;;;;6154624;23;20210;-79
2022/04/09 04:30:44;;;;;;;5.72;3.45;;;4.10;1.00;;;;;;6164602;23;20224;-80
2022/04/09 04:33:17;;;;;;;6.43;4.32;;;4.10;1.00;;;;;;6167956;23;20242;-81
2022/04/09 04:35:46;;;;;;;9.43;4.20;;;4.10;1.00;;;;;;6140757;23;20270;-78
2022/04/09 04:38:23;;;;;;;7.43;3.95;;;4.10;1.00;;;;;;6166309;23;20253;-80
2022/04/09 04:40:56;;;;;;;6.95;4.03;;;4.20;1.00;;;;;;6139102;23;20214;-77
2022/04/09 04:43:26;;;;;;;8.57;4.35;;;4.30;1.00;;;;;;6169680;23;20324;-78
2022/04/09 04:48:44;;;;;;;6.25;3.90;;;4.30;1.00;;;;;;6159413;23;20202;-81
2022/04/09 04:51:34;;;;;;;7.22;4.40;;;4.30;1.00;;;;;;6164435;23;20266;-79
2022/04/09 04:54:05;;;;;;;6.93;4.40;;;4.20;1.00;;;;;;6037256;23;20788;-80
2022/04/09 04:56:36;;;;;;;6.22;3.60;;;4.20;1.00;;;;;;6107966;23;21304;-80
2022/04/09 04:59:07;;;;;;;4.75;3.35;;;4.20;1.00;;;;;;6148118;23;20210;-79
2022/04/09 05:01:40;;;;;;;7.82;3.85;;;4.10;1.00;;;;;;6168119;23;20211;-78
2022/04/09 05:04:17;;;;;;;;;;;;;;;;;;;;;
2022/04/09 05:06:46;;;;;;;7.85;3.30;;;4.10;1.00;;;;;;6181535;23;40919;-80
2022/04/09 05:09:14;;;;;;;5.68;3.60;;;4.00;1.00;;;;;;6186497;23;20210;-79
2022/04/09 05:11:46;;;;;;;11.25;4.10;;;4.00;1.00;;;;;;6175847;23;20215;-80
2022/04/09 05:14:15;;;;;;;6.97;3.92;;;4.00;1.00;;;;;;6163822;23;20214;-78
2022/04/09 05:16:45;;;;;;;9.40;3.97;;;4.00;1.00;;;;;;6169645;23;20207;-78
2022/04/09 05:19:15;;;;;;;8.32;3.75;;;4.00;1.00;;;;;;6176340;23;20305;-79
2022/04/09 05:21:47;;;;;;;9.45;4.32;;;4.10;1.00;;;;;;6166569;23;20259;-79
2022/04/09 05:24:14;;;;;;;9.35;4.32;;;4.10;1.00;;;;;;6162328;23;20211;-82
2022/04/09 05:27:05;;;;;;;5.97;3.53;;;4.10;1.00;;;;;;6178168;23;20224;-79
2022/04/09 05:29:35;;;;;;;6.10;3.97;;;4.10;1.00;;;;;;6189678;23;20217;-79
2022/04/09 05:32:07;;;;;;;9.75;4.68;;;4.10;1.00;;;;;;6189939;23;20260;-77
2022/04/09 05:34:35;;;;;;;8.40;4.03;;;4.20;1.00;;;;;;6192788;23;20226;-80
2022/04/09 05:37:07;;;;;;;7.07;4.35;;;4.20;1.00;;;;;;6185516;23;20194;-78
2022/04/09 05:39:34;;;;;;;7.18;4.65;;;4.10;1.00;;;;;;6184689;23;20574;-76
2022/04/09 05:42:08;;;;;;;10.77;4.20;;;4.20;1.00;;;;;;6184863;23;20416;-77
2022/04/09 05:44:34;;;;;;;5.80;3.72;;;4.20;1.00;;;;;;6183865;23;20221;-77
2022/04/09 05:47:04;;;;;;;9.13;4.60;;;4.20;1.00;;;;;;6188290;23;20206;-78
2022/04/09 05:49:34;;;;;;;8.65;4.72;;;4.20;1.00;;;;;;6185484;23;20198;-77
2022/04/09 05:52:04;;;;;;;6.22;3.90;;;4.20;1.00;;;;;;6184966;23;20210;-78
2022/04/09 05:54:34;;;;;;;6.25;3.80;;;4.20;1.00;;;;;;6188704;23;20233;-76
2022/04/09 05:57:05;;;;;;;6.32;3.83;;;4.30;1.00;;;;;;6191036;23;20736;-77
2022/04/09 05:59:35;;;;;;;6.57;4.03;;;4.40;1.00;;;;;;6196433;23;20206;-76
2022/04/09 06:02:04;;;;;;;7.57;4.53;;;4.50;1.00;;;;;;6190066;23;20236;-77
2022/04/09 06:04:31;;;;;;;9.85;4.30;;;4.60;1.00;;;;;;6184056;23;21390;-77
2022/04/09 06:06:57;;;;;;;17.27;3.95;;;4.70;1.00;;;;;;6185999;23;20970;-79
2022/04/09 06:09:24;;;;;;;8.35;4.90;;;4.80;1.00;;;;;;6186952;23;20220;-79
2022/04/09 06:11:51;;;;;;;8.45;4.55;;;4.90;1.00;;;;;;6186191;23;20245;-77
2022/04/09 06:14:24;;;;;;;6.50;4.10;;;5.00;1.00;;;;;;6184617;23;20222;-77
2022/04/09 06:16:54;;;;;;;9.30;4.43;;;5.00;1.00;;;;;;6184582;23;20278;-78
2022/04/09 06:19:21;;;;;;;9.15;4.43;;;5.10;1.00;;;;;;6189678;23;20233;-77
2022/04/09 06:21:47;;;;;;;7.40;3.90;;;5.20;1.00;;;;;;6183268;23;20218;-77
2022/04/09 06:24:14;;;;;;;7.43;4.18;;;5.20;1.00;;;;;;6190450;23;20206;-76
2022/04/09 06:26:43;;;;;;;7.13;4.45;;;5.30;1.00;;;;;;6188248;23;20210;-78
2022/04/09 06:29:10;;;;;;;6.95;4.20;;;5.20;1.00;;;;;;6181730;23;20420;-76
2022/04/09 06:31:38;;;;;;;8.45;4.93;;;5.30;1.00;;;;;;6198699;23;20277;-76
2022/04/09 06:34:04;;;;;;;8.40;4.80;;;5.40;1.00;;;;;;6205533;23;20253;-77
2022/04/09 06:36:34;;;;;;;7.00;3.60;;;5.40;1.00;;;;;;6202480;23;20221;-77
2022/04/09 06:39:01;;;;;;;7.22;4.22;;;5.40;1.00;;;;;;6203133;23;20209;-77
2022/04/09 06:41:28;;;;;;;4.80;4.25;;;5.60;1.00;;;;;;6187596;23;20759;-79
2022/04/09 06:43:56;;;;;;;7.03;5.05;;;5.60;1.00;;;;;;6183465;23;20218;-79
2022/04/09 06:46:22;;;;;;;6.05;3.92;;;5.60;1.00;;;;;;6187584;23;20210;-76
2022/04/09 06:48:55;;;;;;;5.40;3.83;;;5.50;1.00;;;;;;6186258;23;20266;-78
2022/04/09 06:51:22;;;;;;;8.85;4.60;;;5.60;1.00;;;;;;6192626;23;20210;-76
2022/04/09 06:53:49;;;;;;;12.13;4.28;;;5.80;1.00;;;;;;6195245;23;20206;-76
2022/04/09 06:56:15;;;;;;;7.65;4.40;;;5.80;1.00;;;;;;6197833;23;20214;-77
2022/04/09 06:58:44;;;;;;;7.60;4.47;;;6.00;1.00;;;;;;6193478;23;20202;-77
2022/04/09 07:01:11;;;;;;;7.15;3.92;;;6.00;1.00;;;;;;6184043;23;20218;-77
2022/04/09 07:03:43;;;;;;;7.93;3.20;;;6.10;1.00;;;;;;6181532;23;20520;-78
2022/04/09 07:06:11;;;;;;;9.10;4.50;;;6.10;1.00;;;;;;6186156;23;20218;-78
2022/04/09 07:08:40;;;;;;;10.20;5.03;;;6.00;1.00;;;;;;6186356;23;20282;-79
2022/04/09 07:11:07;;;;;;;5.43;4.43;;;6.10;1.00;;;;;;6200151;23;20203;-79
2022/04/09 07:13:34;;;;;;;7.18;3.88;;;6.10;1.00;;;;;;6185098;23;20207;-78
2022/04/09 07:16:05;;;;;;;8.82;4.68;;;6.20;1.00;;;;;;6188550;23;20234;-78
2022/04/09 07:18:32;;;;;;;6.90;3.63;;;6.20;1.00;;;;;;6184341;23;20214;-79
2022/04/09 07:21:07;;;;;;;8.50;4.00;;;6.30;1.00;;;;;;6183381;23;20619;-79
2022/04/09 07:23:34;;;;;;;6.05;4.22;;;6.50;1.00;;;;;;6183177;23;20332;-77
2022/04/09 07:26:07;;;;;;;8.73;4.00;;;6.70;1.00;;;;;;6179864;23;20214;-76
2022/04/09 07:28:33;;;;;;;7.47;3.97;;;6.80;1.00;;;;;;6179660;23;20238;-78
2022/04/09 07:31:05;;;;;;;7.13;3.55;;;6.90;1.00;;;;;;6182094;23;20238;-78
2022/04/09 07:33:34;;;;;;;5.72;3.03;;;7.00;1.00;;;;;;6180969;23;20215;-77
2022/04/09 07:36:01;;;;;;;6.40;3.30;;;7.00;1.00;;;;;;6178204;23;20214;-78
2022/04/09 07:38:28;;;;;;;6.22;3.15;;;6.90;1.00;;;;;;6175415;23;20306;-77
2022/04/09 07:40:56;;;;;;;5.30;2.80;;;6.90;1.00;;;;;;6177283;23;20245;-79
2022/04/09 07:43:22;;;;;;;4.35;2.63;;;7.00;1.00;;;;;;6176219;23;20222;-79
2022/04/09 07:45:54;;;;;;;7.68;3.50;;;6.90;1.00;;;;;;6184931;23;20435;-75
2022/04/09 07:48:24;;;;;;;5.80;3.25;;;7.00;1.00;;;;;;6189854;23;20391;-78
2022/04/09 07:50:55;;;;;;;7.90;3.38;;;7.30;1.00;;;;;;6193605;23;20396;-79
2022/04/09 07:53:21;;;;;;;6.32;3.78;;;7.50;1.00;;;;;;6189617;23;20206;-78
2022/04/09 07:55:48;;;;;;;6.95;3.97;;;7.50;1.00;;;;;;6181279;23;20221;-77
2022/04/09 07:58:16;;;;;;;7.25;3.72;;;7.60;1.00;;;;;;6179801;23;20241;-77
2022/04/09 08:00:44;;;;;;;8.88;3.63;;;7.60;1.00;;;;;;6175151;23;20210;-77
2022/04/09 08:03:11;;;;;;;5.80;3.55;;;7.60;1.00;;;;;;6180118;23;21146;-79
2022/04/09 08:05:38;;;;;;;7.03;4.15;;;7.50;1.00;;;;;;6180902;23;20428;-77
2022/04/09 08:08:07;;;;;;;5.53;3.00;;;7.50;1.00;;;;;;6177497;23;20202;-77
2022/04/09 08:10:37;;;;;;;8.35;3.72;;;7.50;1.00;;;;;;6184684;23;20214;-77
2022/04/09 08:13:05;;;;;;;9.80;3.10;;;7.50;1.00;;;;;;6176761;23;20257;-78
2022/04/09 08:15:33;;;;;;;9.93;3.95;;;7.80;1.00;;;;;;6179663;23;20216;-76
2022/04/09 08:18:05;;;;;;;7.13;3.50;;;8.00;1.00;;;;;;6182094;23;20296;-77
2022/04/09 08:20:31;;;;;;;6.47;3.25;;;8.00;1.00;;;;;;6184019;23;20244;-78
2022/04/09 08:22:59;;;;;;;6.00;3.63;;;8.30;1.00;;;;;;6182924;23;20206;-77
2022/04/09 08:25:28;;;;;;;8.80;3.47;;;8.60;1.00;;;;;;6189534;23;20214;-77
2022/04/09 08:27:55;;;;;;;6.90;3.40;;;8.60;1.00;;;;;;6182421;23;20222;-78
2022/04/09 08:30:25;;;;;;;6.10;3.20;;;8.30;1.00;;;;;;6185061;23;20345;-77
2022/04/09 08:32:55;;;;;;;10.13;4.50;;;8.30;1.00;;;;;;6193897;23;20521;-76
2022/04/09 08:35:22;;;;;;;6.90;3.30;;;8.40;1.00;;;;;;6185976;23;20289;-76
2022/04/09 08:37:56;;;;;;;6.35;3.65;;;8.40;1.00;;;;;;6178969;23;20221;-78
2022/04/09 08:40:25;;;;;;;8.32;3.25;;;8.40;1.00;;;;;;6180507;23;20219;-77
2022/04/09 08:42:52;;;;;;;9.30;3.72;;;8.60;1.00;;;;;;6180413;23;20218;-76
2022/04/09 08:45:22;;;;;;;8.82;3.22;;;8.70;1.00;;;;;;6187495;23;20246;-77
2022/04/09 08:47:53;;;;;;;6.13;2.85;;;8.80;1.00;;;;;;6183946;23;20680;-78
2022/04/09 08:50:23;;;;;;;6.82;2.55;;;8.90;1.00;;;;;;6185084;23;20220;-77
2022/04/09 08:52:53;;;;;;;6.80;3.30;;;9.00;1.00;;;;;;6187380;23;20206;-78
2022/04/09 08:55:24;;;;;;;8.25;3.10;;;8.90;1.00;;;;;;6186651;23;20210;-78
2022/04/09 08:57:54;;;;;;;5.72;3.20;;;9.10;1.00;;;;;;6188677;23;20207;-78
2022/04/09 09:00:25;;;;;;;6.73;2.30;;;9.40;1.00;;;;;;6188326;23;20214;-78
2022/04/09 09:02:56;;;;;;;5.10;2.75;;;9.60;1.00;;;;;;6205123;23;20451;-77
2022/04/09 09:05:35;;;;;;;5.10;3.38;;;9.50;1.00;;;;;;6192890;23;20218;-78
2022/04/09 09:08:03;;;;;;;5.55;2.60;;;9.60;1.00;;;;;;6188100;23;20304;-77
2022/04/09 09:10:34;;;;;;;8.93;3.50;;;9.60;1.00;;;;;;6189141;23;20246;-78
2022/04/09 09:13:04;;;;;;;7.05;3.70;;;9.90;1.00;;;;;;6190067;23;20434;-77
2022/04/09 09:15:44;;;;;;;7.68;2.95;;;9.90;1.00;;;;;;6188195;23;20325;-79
2022/04/09 09:18:19;;;;;;;5.82;2.95;;;9.80;1.00;;;;;;6188447;23;20210;-78
2022/04/09 09:20:51;;;;;;;5.70;3.00;;;9.90;1.00;;;;;;6189009;23;20219;-77
2022/04/09 09:23:25;;;;;;;6.43;3.10;;;10.10;1.00;;;;;;6195853;23;20481;-77
2022/04/09 09:25:53;;;;;;;6.70;3.40;;;10.50;1.00;;;;;;6193088;23;20218;-79
2022/04/09 09:28:25;;;;;;;5.87;2.80;;;11.30;1.00;;;;;;6192700;23;20751;-78
2022/04/09 09:30:52;;;;;;;4.90;3.07;;;12.80;1.00;;;;;;6187938;23;20422;-78
2022/04/09 09:33:24;;;;;;;3.43;2.60;;;13.80;1.00;;;;;;6187005;23;20477;-80
2022/04/09 09:35:54;;;;;;;5.00;2.40;;;14.40;1.00;;;;;;6187109;23;20438;-80
2022/04/09 09:38:27;;;;;;;5.90;2.70;;;13.60;1.00;;;;;;6185909;23;20467;-79
2022/04/09 09:40:55;;;;;;;6.83;3.00;;;13.60;1.00;;;;;;6185983;23;21914;-78
2022/04/09 09:43:23;;;;;;;5.47;2.80;;;13.90;1.00;;;;;;6185221;23;20390;-78
2022/04/09 09:45:55;;;;;;;4.97;2.80;;;14.70;1.00;;;;;;6188718;23;21138;-77
2022/04/09 09:48:23;;;;;;;3.00;2.23;;;14.70;1.00;;;;;;6186989;23;20449;-77
2022/04/09 09:50:53;;;;;;;3.43;2.30;;;15.20;1.00;;;;;;6183155;23;20418;-78
2022/04/09 09:53:31;;;;;;;7.20;2.93;;;15.80;1.00;;;;;;6190457;23;20390;-78
2022/04/09 09:55:59;;;;;;;6.00;2.30;;;15.80;1.00;;;;;;6187133;23;20461;-77
2022/04/09 09:58:27;;;;;;;6.40;3.13;;;15.40;1.00;;;;;;6190839;23;20415;-78
2022/04/09 10:00:55;;;;;;;6.87;2.07;;;15.80;1.00;;;;;;6184919;23;20436;-77
2022/04/09 10:03:24;;;;;;;4.77;2.40;;;15.60;1.00;;;;;;6186390;23;20434;-77
2022/04/09 10:05:55;;;;;;;3.90;2.50;;;15.40;1.00;;;;;;6185812;23;20406;-78
2022/04/09 10:08:24;;;;;;;3.73;1.90;;;14.20;1.00;;;;;;6188462;23;20418;-78
2022/04/09 10:11:00;;;;;;;4.73;2.83;;;13.80;1.00;;;;;;6187872;23;20406;-76
2022/04/09 10:13:31;;;;;;;6.60;2.63;;;13.60;1.00;;;;;;6190365;23;20390;-77
2022/04/09 10:16:08;;;;;;;4.80;2.10;;;14.00;1.00;;;;;;6185371;23;20402;-78
2022/04/09 10:18:35;;;;;;;5.90;2.77;;;15.30;1.00;;;;;;6187184;23;20437;-78
2022/04/09 10:21:07;;;;;;;4.00;2.87;;;15.70;1.00;;;;;;6187585;23;20390;-77
2022/04/09 10:23:35;;;;;;;5.73;2.60;;;15.80;1.00;;;;;;6190138;23;20457;-77
2022/04/09 10:26:04;;;;;;;4.70;2.30;;;14.60;1.00;;;;;;6191719;23;20417;-78
2022/04/09 10:28:32;;;;;;;5.23;2.30;;;14.00;1.00;;;;;;6193640;23;20426;-79
2022/04/09 10:31:35;;;;;;;3.90;1.90;;;13.40;1.00;;;;;;6190510;23;20430;-77
2022/04/09 10:34:07;;;;;;;5.43;2.80;;;12.90;1.00;;;;;;6190643;23;20394;-78
2022/04/09 10:37:05;;;;;;;4.90;2.37;;;12.50;1.00;;;;;;6188804;23;20430;-77
2022/04/09 10:39:45;;;;;;;5.77;2.90;;;11.80;1.00;;;;;;6190258;23;20432;-77
2022/04/09 10:42:48;;;;;;;3.80;2.40;;;11.70;1.00;;;;;;6155769;23;20414;-79
2022/04/09 10:45:15;;;;;;;7.53;2.80;;;11.40;1.00;;;;;;6159184;23;20415;-77
2022/04/09 10:48:10;;;;;;;4.33;1.90;;;11.50;1.00;;;;;;6158793;23;20408;-77
2022/04/09 10:50:57;;;;;;;4.47;2.50;;;11.30;1.00;;;;;;6158528;23;20405;-79
2022/04/09 10:53:27;;;;;;;4.83;2.37;;;11.00;1.00;;;;;;6155340;23;20423;-79
2022/04/09 10:56:20;;;;;;;3.50;2.13;;;11.00;1.00;;;;;;6156868;23;20398;-78
2022/04/09 10:59:36;;;;;;;4.90;2.20;;;11.10;1.00;;;;;;6157618;23;20849;-79
2022/04/09 11:02:04;;;;;;;5.30;2.50;;;12.70;1.00;;;;;;6130502;23;20439;-79
2022/04/09 11:04:56;;;;;;;5.90;3.00;;;12.90;1.00;;;;;;6157686;23;20415;-78
2022/04/09 11:07:27;;;;;;;3.67;1.80;;;12.70;1.00;;;;;;6146745;23;20477;-78
2022/04/09 11:10:03;;;;;;;3.37;1.97;;;12.70;1.00;;;;;;6156329;23;20466;-79
2022/04/09 11:12:31;;;;;;;2.50;1.60;;;13.00;1.00;;;;;;6155536;23;20980;-78
2022/04/09 11:15:05;;;;;;;7.70;2.10;;;13.00;1.00;;;;;;6158168;23;20427;-78
2022/04/09 11:17:34;;;;;;;4.93;2.43;;;12.30;1.00;;;;;;6160526;23;20447;-77
2022/04/09 11:20:07;;;;;;;2.87;1.97;;;12.30;1.00;;;;;;6156193;23;20399;-79
2022/04/09 11:22:36;;;;;;;4.00;2.40;;;14.40;1.00;;;;;;6158421;23;20729;-78
2022/04/09 11:25:08;;;;;;;2.63;1.43;;;16.40;1.00;;;;;;6160365;23;20407;-80
2022/04/09 11:27:35;;;;;;;2.90;1.77;;;16.90;1.00;;;;;;6159102;23;20423;-77
2022/04/09 11:30:02;;;;;;;5.60;2.70;;;16.90;1.00;;;;;;6156711;23;20449;-78
2022/04/09 11:32:36;;;;;;;7.07;5.07;;;16.90;1.00;;;;;;6159202;23;20459;-78
2022/04/09 11:35:08;;;;;;;3.10;1.80;;;15.40;1.00;;;;;;6158075;23;20490;-77
2022/04/09 11:37:45;;;;;;;3.70;1.83;;;14.60;1.00;;;;;;6173204;23;20475;-77
2022/04/09 11:40:14;;;;;;;3.67;1.60;;;15.20;1.00;;;;;;6163958;23;20517;-78
2022/04/09 11:42:47;;;;;;;4.63;1.33;;;14.20;1.00;;;;;;6155226;23;20427;-78
2022/04/09 11:45:23;;;;;;;3.53;1.43;;;14.50;1.00;;;;;;6153206;23;20446;-77
2022/04/09 11:47:57;;;;;;;4.33;1.60;;;14.10;1.00;;;;;;6153772;23;20402;-76
2022/04/09 11:50:25;;;;;;;2.30;1.27;;;14.40;1.00;;;;;;6155129;23;20434;-78
2022/04/09 11:52:55;;;;;;;2.33;1.63;;;13.90;1.00;;;;;;6156593;23;20423;-80
2022/04/09 11:55:23;;;;;;;4.33;2.10;;;13.30;1.00;;;;;;6161434;23;20498;-79
2022/04/09 11:57:55;;;;;;;2.37;1.50;;;12.70;1.00;;;;;;6157842;23;20436;-78
2022/04/09 12:00:27;;;;;;;5.17;2.07;;;12.90;1.00;;;;;;6157181;23;20914;-78
2022/04/09 12:02:55;;;;;;;5.93;1.70;;;13.40;1.00;;;;;;6155904;23;20452;-77
2022/04/09 12:05:22;;;;;;;4.40;1.53;;;14.00;1.00;;;;;;6157001;23;20400;-79
2022/04/09 12:07:49;;;;;;;2.13;1.43;;;15.00;1.00;;;;;;6155072;23;20447;-79
2022/04/09 12:10:29;;;;;;;2.60;1.33;;;16.90;1.00;;;;;;6164384;23;20451;-77
2022/04/09 12:13:06;;;;;;;3.30;1.10;;;19.10;1.00;;;;;;6166118;23;20450;-77
2022/04/09 12:15:35;;;;;;;2.30;1.00;;;20.60;1.00;;;;;;6167093;23;20611;-76
2022/04/09 12:18:05;;;;;;;2.43;1.27;;;21.40;1.00;;;;;;6167502;23;20387;-77
2022/04/09 12:20:34;;;;;;;2.97;1.23;;;21.50;1.00;;;;;;6168474;23;20438;-77
2022/04/09 12:23:07;;;;;;;2.83;1.13;;;21.20;1.00;;;;;;6168221;23;20390;-76
2022/04/09 12:25:43;;;;;;;3.33;1.33;;;21.80;1.00;;;;;;6165521;23;20430;-77
2022/04/09 12:28:24;;;;;;;3.33;1.17;;;22.40;1.00;;;;;;6155851;23;20427;-78
2022/04/09 12:30:53;;;;;;;3.47;1.30;;;22.40;1.00;;;;;;6142193;23;20440;-78
2022/04/09 12:33:25;;;;;;;2.60;1.40;;;22.00;1.00;;;;;;6174807;23;20411;-77
2022/04/09 12:35:53;;;;;;;3.93;1.47;;;22.40;1.00;;;;;;6164850;23;21705;-78
2022/04/09 12:38:38;;;;;;;3.50;1.47;;;21.70;1.00;;;;;;6157525;23;20565;-78
2022/04/09 12:41:07;;;;;;;2.80;1.80;;;18.60;1.00;;;;;;6154982;23;20461;-78
2022/04/09 12:43:37;;;;;;;4.03;1.60;;;17.20;1.00;;;;;;6158565;23;20384;-77
2022/04/09 12:46:07;;;;;;;3.20;1.60;;;17.20;1.00;;;;;;6156015;23;20455;-78
2022/04/09 12:48:47;;;;;;;4.43;1.60;;;15.60;1.00;;;;;;6153199;23;20450;-80
2022/04/09 12:51:18;;;;;;;2.33;1.40;;;14.70;1.00;;;;;;6159162;23;20406;-80
2022/04/09 12:53:49;;;;;;;2.60;1.20;;;15.30;1.00;;;;;;6158409;23;20433;-78
2022/04/09 12:56:18;;;;;;;2.60;0.90;;;15.60;1.00;;;;;;6156741;23;21305;-79
2022/04/09 12:58:46;;;;;;;3.17;1.43;;;14.90;1.00;;;;;;6152862;23;20410;-77
2022/04/09 13:01:14;;;;;;;2.90;1.23;;;13.80;1.00;;;;;;6153590;23;21253;-78
2022/04/09 13:03:45;;;;;;;4.53;1.13;;;12.90;1.00;;;;;;6150674;23;20438;-78
2022/04/09 13:06:11;;;;;;;1.80;1.03;;;12.20;1.00;;;;;;6156242;23;20586;-78
2022/04/09 13:08:38;;;;;;;1.83;0.87;;;11.60;1.00;;;;;;6157068;23;20427;-77
2022/04/09 13:11:07;;;;;;;2.97;0.95;;;11.10;1.00;;;;;;6164328;23;20415;-79
2022/04/09 13:13:37;;;;;;;1.73;0.63;;;10.70;1.00;;;;;;6152939;23;20326;-77
2022/04/09 13:16:07;;;;;;;2.10;0.80;;;11.00;1.00;;;;;;6155977;23;20446;-79
2022/04/09 13:18:35;;;;;;;2.00;0.80;;;13.00;1.00;;;;;;6157798;23;20379;-78
2022/04/09 13:21:04;;;;;;;2.40;0.97;;;15.50;1.00;;;;;;6153060;23;20506;-78
2022/04/09 13:23:35;;;;;;;1.70;0.63;;;17.10;1.00;;;;;;6150262;23;20431;-78
2022/04/09 13:26:05;;;;;;;2.77;1.37;;;18.10;1.00;;;;;;6161553;23;20458;-78
2022/04/09 13:28:32;;;;;;;1.30;0.60;;;17.90;1.00;;;;;;6156147;23;20887;-77
2022/04/09 13:31:05;;;;;;;2.60;0.83;;;17.20;1.00;;;;;;6157498;23;20750;-77
2022/04/09 13:33:33;;;;;;;1.83;1.00;;;15.80;1.00;;;;;;6156677;23;20981;-77
2022/04/09 13:36:02;;;;;;;2.00;1.10;;;15.70;1.00;;;;;;6159988;23;20461;-76
2022/04/09 13:38:30;;;;;;;2.80;1.40;;;16.90;1.00;;;;;;6157433;23;20459;-78
2022/04/09 13:40:57;;;;;;;2.13;1.10;;;18.20;1.00;;;;;;6157551;23;20423;-78
2022/04/09 13:43:26;;;;;;;1.70;1.03;;;18.60;1.00;;;;;;6157879;23;20427;-78
2022/04/09 13:45:53;;;;;;;3.23;1.00;;;18.60;1.00;;;;;;6156601;23;20399;-76
2022/04/09 13:48:21;;;;;;;2.13;1.20;;;18.30;1.00;;;;;;6157513;23;20463;-77
2022/04/09 13:50:48;;;;;;;1.77;0.93;;;17.50;1.00;;;;;;6158376;23;20408;-78
2022/04/09 13:53:15;;;;;;;1.80;1.10;;;17.10;1.00;;;;;;6160409;23;20446;-78
2022/04/09 13:55:44;;;;;;;2.07;1.00;;;16.30;1.00;;;;;;6161230;23;20482;-77
2022/04/09 13:58:13;;;;;;;2.43;1.00;;;15.00;1.00;;;;;;6165725;23;20739;-78
2022/04/09 14:00:45;;;;;;;1.70;0.90;;;14.10;1.00;;;;;;6163277;23;21851;-76